sensor_id;sensor_type;location;lat;lon;timestamp;P1;durP1;ratioP1;P2;durP2;ratioP2
23266;SDS011;11802;53.160;8.214;2023-04-24T00:02:07;5.33;;;4.40;;
23266;SDS011;11802;53.160;8.214;2023-04-24T00:04:34;6.47;;;4.70;;
23266;SDS011;11802;53.160;8.214;2023-04-24T00:06:59;6.90;;;5.00;;
23266;SDS011;11802;53.160;8.214;2023-04-24T00:09:25;6.77;;;5.07;;
23266;SDS011;11802;53.160;8.214;2023-04-24T00:11:51;6.27;;;4.57;;
23266;SDS011;11802;53.160;8.214;2023-04-24T00:14:18;8.07;;;4.93;;
23266;SDS011;11802;53.160;8.214;2023-04-24T00:16:44;6.27;;;4.90;;
23266;SDS011;11802;53.160;8.214;2023-04-24T00:19:09;7.53;;;4.23;;
23266;SDS011;11802;53.160;8.214;2023-04-24T00:21:36;5.90;;;4.07;;
23266;SDS011;11802;53.160;8.214;2023-04-24T00:24:02;4.97;;;3.70;;
23266;SDS011;11802;53.160;8.214;2023-04-24T00:26:28;4.10;;;3.10;;
23266;SDS011;11802;53.160;8.214;2023-04-24T00:28:53;2.77;;;2.00;;
23266;SDS011;11802;53.160;8.214;2023-04-24T00:31:19;1.80;;;1.70;;
23266;SDS011;11802;53.160;8.214;2023-04-24T00:33:44;2.10;;;1.70;;
23266;SDS011;11802;53.160;8.214;2023-04-24T00:36:10;1.70;;;1.40;;
23266;SDS011;11802;53.160;8.214;2023-04-24T00:38:35;1.40;;;1.20;;
23266;SDS011;11802;53.160;8.214;2023-04-24T00:41:01;1.70;;;1.23;;
23266;SDS011;11802;53.160;8.214;2023-04-24T00:43:26;1.23;;;1.13;;
23266;SDS011;11802;53.160;8.214;2023-04-24T00:45:52;1.20;;;1.10;;
23266;SDS011;11802;53.160;8.214;2023-04-24T00:48:18;2.77;;;1.27;;
23266;SDS011;11802;53.160;8.214;2023-04-24T00:50:45;2.03;;;1.50;;
23266;SDS011;11802;53.160;8.214;2023-04-24T00:53:10;2.00;;;1.50;;
23266;SDS011;11802;53.160;8.214;2023-04-24T00:55:36;3.03;;;1.50;;
23266;SDS011;11802;53.160;8.214;2023-04-24T00:58:02;1.70;;;1.60;;
23266;SDS011;11802;53.160;8.214;2023-04-24T01:00:28;3.27;;;1.90;;
23266;SDS011;11802;53.160;8.214;2023-04-24T01:02:53;2.20;;;2.00;;
23266;SDS011;11802;53.160;8.214;2023-04-24T01:05:20;2.67;;;2.00;;
23266;SDS011;11802;53.160;8.214;2023-04-24T01:07:46;3.63;;;2.10;;
23266;SDS011;11802;53.160;8.214;2023-04-24T01:10:14;3.13;;;1.97;;
23266;SDS011;11802;53.160;8.214;2023-04-24T01:12:40;2.33;;;2.13;;
23266;SDS011;11802;53.160;8.214;2023-04-24T01:15:05;2.53;;;2.33;;
23266;SDS011;11802;53.160;8.214;2023-04-24T01:17:32;2.83;;;2.37;;
23266;SDS011;11802;53.160;8.214;2023-04-24T01:19:58;2.60;;;2.40;;
23266;SDS011;11802;53.160;8.214;2023-04-24T01:22:25;4.77;;;2.70;;
23266;SDS011;11802;53.160;8.214;2023-04-24T01:24:51;3.10;;;2.70;;
23266;SDS011;11802;53.160;8.214;2023-04-24T01:27:18;3.50;;;2.57;;
23266;SDS011;11802;53.160;8.214;2023-04-24T01:29:44;2.67;;;2.47;;
23266;SDS011;11802;53.160;8.214;2023-04-24T01:32:10;3.30;;;2.30;;
23266;SDS011;11802;53.160;8.214;2023-04-24T01:34:36;2.93;;;2.40;;
23266;SDS011;11802;53.160;8.214;2023-04-24T01:37:02;2.97;;;2.67;;
23266;SDS011;11802;53.160;8.214;2023-04-24T01:39:29;5.17;;;2.80;;
23266;SDS011;11802;53.160;8.214;2023-04-24T01:41:55;3.73;;;2.50;;
23266;SDS011;11802;53.160;8.214;2023-04-24T01:44:21;3.87;;;2.47;;
23266;SDS011;11802;53.160;8.214;2023-04-24T01:46:47;3.43;;;2.50;;
23266;SDS011;11802;53.160;8.214;2023-04-24T01:49:13;3.00;;;2.30;;
23266;SDS011;11802;53.160;8.214;2023-04-24T01:51:38;3.17;;;2.60;;
23266;SDS011;11802;53.160;8.214;2023-04-24T01:54:04;3.20;;;2.80;;
23266;SDS011;11802;53.160;8.214;2023-04-24T01:56:30;4.77;;;3.10;;
23266;SDS011;11802;53.160;8.214;2023-04-24T01:58:59;4.03;;;3.10;;
23266;SDS011;11802;53.160;8.214;2023-04-24T02:01:27;5.33;;;4.00;;
23266;SDS011;11802;53.160;8.214;2023-04-24T02:03:52;3.47;;;3.00;;
23266;SDS011;11802;53.160;8.214;2023-04-24T02:06:17;3.70;;;3.10;;
23266;SDS011;11802;53.160;8.214;2023-04-24T02:08:43;4.10;;;3.70;;
23266;SDS011;11802;53.160;8.214;2023-04-24T02:11:09;3.97;;;3.27;;
23266;SDS011;11802;53.160;8.214;2023-04-24T02:13:35;4.07;;;3.40;;
23266;SDS011;11802;53.160;8.214;2023-04-24T02:16:03;4.63;;;3.40;;
23266;SDS011;11802;53.160;8.214;2023-04-24T02:18:29;5.20;;;4.00;;
23266;SDS011;11802;53.160;8.214;2023-04-24T02:20:55;4.20;;;3.57;;
23266;SDS011;11802;53.160;8.214;2023-04-24T02:23:20;6.23;;;4.53;;
23266;SDS011;11802;53.160;8.214;2023-04-24T02:25:46;5.30;;;4.30;;
23266;SDS011;11802;53.160;8.214;2023-04-24T02:28:12;5.30;;;4.50;;
23266;SDS011;11802;53.160;8.214;2023-04-24T02:30:37;5.23;;;4.70;;
23266;SDS011;11802;53.160;8.214;2023-04-24T02:33:03;5.90;;;4.50;;
23266;SDS011;11802;53.160;8.214;2023-04-24T02:35:28;5.23;;;4.03;;
23266;SDS011;11802;53.160;8.214;2023-04-24T02:37:54;5.40;;;4.40;;
23266;SDS011;11802;53.160;8.214;2023-04-24T02:40:20;6.03;;;4.60;;
23266;SDS011;11802;53.160;8.214;2023-04-24T02:42:45;6.13;;;4.83;;
23266;SDS011;11802;53.160;8.214;2023-04-24T02:45:11;6.30;;;4.57;;
23266;SDS011;11802;53.160;8.214;2023-04-24T02:47:36;6.30;;;4.57;;
23266;SDS011;11802;53.160;8.214;2023-04-24T02:50:02;6.07;;;4.27;;
23266;SDS011;11802;53.160;8.214;2023-04-24T02:52:28;5.93;;;4.50;;
23266;SDS011;11802;53.160;8.214;2023-04-24T02:54:54;6.00;;;4.70;;
23266;SDS011;11802;53.160;8.214;2023-04-24T02:57:19;7.03;;;5.23;;
23266;SDS011;11802;53.160;8.214;2023-04-24T02:59:45;9.90;;;5.30;;
23266;SDS011;11802;53.160;8.214;2023-04-24T03:02:10;7.23;;;5.53;;
23266;SDS011;11802;53.160;8.214;2023-04-24T03:04:36;7.37;;;5.90;;
23266;SDS011;11802;53.160;8.214;2023-04-24T03:07:01;6.63;;;4.93;;
23266;SDS011;11802;53.160;8.214;2023-04-24T03:09:27;8.13;;;5.60;;
23266;SDS011;11802;53.160;8.214;2023-04-24T03:11:52;7.73;;;5.83;;
23266;SDS011;11802;53.160;8.214;2023-04-24T03:14:18;8.67;;;5.87;;
23266;SDS011;11802;53.160;8.214;2023-04-24T03:16:44;7.63;;;5.50;;
23266;SDS011;11802;53.160;8.214;2023-04-24T03:19:09;7.60;;;5.93;;
23266;SDS011;11802;53.160;8.214;2023-04-24T03:21:35;7.57;;;5.67;;
23266;SDS011;11802;53.160;8.214;2023-04-24T03:24:05;8.03;;;5.23;;
23266;SDS011;11802;53.160;8.214;2023-04-24T03:26:31;7.50;;;5.37;;
23266;SDS011;11802;53.160;8.214;2023-04-24T03:28:57;6.27;;;4.83;;
23266;SDS011;11802;53.160;8.214;2023-04-24T03:31:22;7.27;;;5.13;;
23266;SDS011;11802;53.160;8.214;2023-04-24T03:33:48;7.20;;;5.50;;
23266;SDS011;11802;53.160;8.214;2023-04-24T03:36:13;7.90;;;5.50;;
23266;SDS011;11802;53.160;8.214;2023-04-24T03:38:39;7.60;;;5.57;;
23266;SDS011;11802;53.160;8.214;2023-04-24T03:41:04;7.53;;;4.87;;
23266;SDS011;11802;53.160;8.214;2023-04-24T03:43:30;7.50;;;5.50;;
23266;SDS011;11802;53.160;8.214;2023-04-24T03:45:58;6.93;;;5.43;;
23266;SDS011;11802;53.160;8.214;2023-04-24T03:48:23;9.43;;;5.87;;
23266;SDS011;11802;53.160;8.214;2023-04-24T03:50:49;8.03;;;5.77;;
23266;SDS011;11802;53.160;8.214;2023-04-24T03:53:15;8.20;;;5.93;;
23266;SDS011;11802;53.160;8.214;2023-04-24T03:55:40;7.37;;;5.47;;
23266;SDS011;11802;53.160;8.214;2023-04-24T03:58:06;6.97;;;5.57;;
23266;SDS011;11802;53.160;8.214;2023-04-24T04:00:31;7.10;;;5.17;;
23266;SDS011;11802;53.160;8.214;2023-04-24T04:02:58;6.83;;;5.20;;
23266;SDS011;11802;53.160;8.214;2023-04-24T04:05:23;10.57;;;5.10;;
23266;SDS011;11802;53.160;8.214;2023-04-24T04:07:49;7.17;;;5.27;;
23266;SDS011;11802;53.160;8.214;2023-04-24T04:10:14;7.53;;;5.03;;
23266;SDS011;11802;53.160;8.214;2023-04-24T04:12:40;9.07;;;4.93;;
23266;SDS011;11802;53.160;8.214;2023-04-24T04:15:05;6.73;;;5.03;;
23266;SDS011;11802;53.160;8.214;2023-04-24T04:17:32;6.63;;;4.83;;
23266;SDS011;11802;53.160;8.214;2023-04-24T04:19:57;8.13;;;5.03;;
23266;SDS011;11802;53.160;8.214;2023-04-24T04:22:23;7.80;;;4.90;;
23266;SDS011;11802;53.160;8.214;2023-04-24T04:24:48;6.50;;;4.97;;
23266;SDS011;11802;53.160;8.214;2023-04-24T04:27:15;6.90;;;4.77;;
23266;SDS011;11802;53.160;8.214;2023-04-24T04:29:41;7.47;;;5.00;;
23266;SDS011;11802;53.160;8.214;2023-04-24T04:32:07;7.47;;;5.57;;
23266;SDS011;11802;53.160;8.214;2023-04-24T04:34:33;8.70;;;5.67;;
23266;SDS011;11802;53.160;8.214;2023-04-24T04:36:58;10.03;;;6.63;;
23266;SDS011;11802;53.160;8.214;2023-04-24T04:39:27;7.90;;;5.97;;
23266;SDS011;11802;53.160;8.214;2023-04-24T04:41:53;9.60;;;6.03;;
23266;SDS011;11802;53.160;8.214;2023-04-24T04:44:18;9.63;;;6.30;;
23266;SDS011;11802;53.160;8.214;2023-04-24T04:46:44;8.50;;;6.17;;
23266;SDS011;11802;53.160;8.214;2023-04-24T04:49:10;9.77;;;6.30;;
23266;SDS011;11802;53.160;8.214;2023-04-24T04:51:35;10.47;;;6.73;;
23266;SDS011;11802;53.160;8.214;2023-04-24T04:54:01;8.67;;;6.60;;
23266;SDS011;11802;53.160;8.214;2023-04-24T04:56:27;12.13;;;7.83;;
23266;SDS011;11802;53.160;8.214;2023-04-24T04:58:52;11.37;;;8.13;;
23266;SDS011;11802;53.160;8.214;2023-04-24T05:01:18;9.43;;;7.60;;
23266;SDS011;11802;53.160;8.214;2023-04-24T05:03:44;12.23;;;7.70;;
23266;SDS011;11802;53.160;8.214;2023-04-24T05:06:10;10.33;;;7.03;;
23266;SDS011;11802;53.160;8.214;2023-04-24T05:08:35;10.77;;;7.57;;
23266;SDS011;11802;53.160;8.214;2023-04-24T05:11:01;10.73;;;8.10;;
23266;SDS011;11802;53.160;8.214;2023-04-24T05:13:26;11.10;;;6.90;;
23266;SDS011;11802;53.160;8.214;2023-04-24T05:15:52;9.90;;;7.37;;
23266;SDS011;11802;53.160;8.214;2023-04-24T05:18:17;11.60;;;7.53;;
23266;SDS011;11802;53.160;8.214;2023-04-24T05:20:43;10.67;;;7.60;;
23266;SDS011;11802;53.160;8.214;2023-04-24T05:23:09;10.97;;;7.37;;
23266;SDS011;11802;53.160;8.214;2023-04-24T05:25:35;9.80;;;7.47;;
23266;SDS011;11802;53.160;8.214;2023-04-24T05:28:01;10.97;;;8.00;;
23266;SDS011;11802;53.160;8.214;2023-04-24T05:30:27;10.37;;;7.83;;
23266;SDS011;11802;53.160;8.214;2023-04-24T05:32:53;10.83;;;7.80;;
23266;SDS011;11802;53.160;8.214;2023-04-24T05:35:18;9.27;;;7.03;;
23266;SDS011;11802;53.160;8.214;2023-04-24T05:37:44;9.93;;;7.13;;
23266;SDS011;11802;53.160;8.214;2023-04-24T05:40:10;10.93;;;7.73;;
23266;SDS011;11802;53.160;8.214;2023-04-24T05:42:36;9.40;;;7.50;;
23266;SDS011;11802;53.160;8.214;2023-04-24T05:45:01;14.97;;;9.20;;
23266;SDS011;11802;53.160;8.214;2023-04-24T05:47:28;11.40;;;8.10;;
23266;SDS011;11802;53.160;8.214;2023-04-24T05:49:53;10.20;;;6.83;;
23266;SDS011;11802;53.160;8.214;2023-04-24T05:52:19;14.60;;;9.03;;
23266;SDS011;11802;53.160;8.214;2023-04-24T05:54:44;10.67;;;7.90;;
23266;SDS011;11802;53.160;8.214;2023-04-24T05:57:10;10.63;;;7.47;;
23266;SDS011;11802;53.160;8.214;2023-04-24T05:59:36;8.77;;;6.60;;
23266;SDS011;11802;53.160;8.214;2023-04-24T06:02:03;12.37;;;8.40;;
23266;SDS011;11802;53.160;8.214;2023-04-24T06:04:29;12.33;;;8.10;;
23266;SDS011;11802;53.160;8.214;2023-04-24T06:06:54;12.73;;;8.00;;
23266;SDS011;11802;53.160;8.214;2023-04-24T06:09:21;10.90;;;7.70;;
23266;SDS011;11802;53.160;8.214;2023-04-24T06:11:47;9.50;;;7.37;;
23266;SDS011;11802;53.160;8.214;2023-04-24T06:14:14;12.63;;;7.90;;
23266;SDS011;11802;53.160;8.214;2023-04-24T06:16:41;11.17;;;8.00;;
23266;SDS011;11802;53.160;8.214;2023-04-24T06:19:07;11.07;;;7.30;;
23266;SDS011;11802;53.160;8.214;2023-04-24T06:21:32;10.87;;;7.87;;
23266;SDS011;11802;53.160;8.214;2023-04-24T06:23:58;11.70;;;7.47;;
23266;SDS011;11802;53.160;8.214;2023-04-24T06:26:23;13.03;;;8.53;;
23266;SDS011;11802;53.160;8.214;2023-04-24T06:28:51;11.57;;;7.63;;
23266;SDS011;11802;53.160;8.214;2023-04-24T06:31:18;10.17;;;8.03;;
23266;SDS011;11802;53.160;8.214;2023-04-24T06:33:44;11.40;;;7.47;;
23266;SDS011;11802;53.160;8.214;2023-04-24T06:36:10;10.17;;;6.20;;
23266;SDS011;11802;53.160;8.214;2023-04-24T06:38:36;12.87;;;8.23;;
23266;SDS011;11802;53.160;8.214;2023-04-24T06:41:02;14.87;;;9.43;;
23266;SDS011;11802;53.160;8.214;2023-04-24T06:43:29;13.00;;;8.37;;
23266;SDS011;11802;53.160;8.214;2023-04-24T06:45:56;12.30;;;8.03;;
23266;SDS011;11802;53.160;8.214;2023-04-24T06:48:22;11.83;;;8.50;;
23266;SDS011;11802;53.160;8.214;2023-04-24T06:50:49;11.63;;;7.97;;
23266;SDS011;11802;53.160;8.214;2023-04-24T06:53:14;13.87;;;8.13;;
23266;SDS011;11802;53.160;8.214;2023-04-24T06:55:40;12.03;;;8.40;;
23266;SDS011;11802;53.160;8.214;2023-04-24T06:58:06;14.17;;;7.97;;
23266;SDS011;11802;53.160;8.214;2023-04-24T07:00:31;13.13;;;8.00;;
23266;SDS011;11802;53.160;8.214;2023-04-24T07:02:57;11.53;;;8.17;;
23266;SDS011;11802;53.160;8.214;2023-04-24T07:05:22;11.67;;;8.10;;
23266;SDS011;11802;53.160;8.214;2023-04-24T07:07:48;7.93;;;5.30;;
23266;SDS011;11802;53.160;8.214;2023-04-24T07:10:14;10.90;;;7.13;;
23266;SDS011;11802;53.160;8.214;2023-04-24T07:12:40;10.37;;;7.83;;
23266;SDS011;11802;53.160;8.214;2023-04-24T07:15:06;11.50;;;7.67;;
23266;SDS011;11802;53.160;8.214;2023-04-24T07:17:33;11.73;;;7.83;;
23266;SDS011;11802;53.160;8.214;2023-04-24T07:20:00;11.07;;;8.00;;
23266;SDS011;11802;53.160;8.214;2023-04-24T07:22:25;11.63;;;7.90;;
23266;SDS011;11802;53.160;8.214;2023-04-24T07:24:51;12.47;;;7.53;;
23266;SDS011;11802;53.160;8.214;2023-04-24T07:27:16;14.07;;;8.53;;
23266;SDS011;11802;53.160;8.214;2023-04-24T07:29:42;11.70;;;8.93;;
23266;SDS011;11802;53.160;8.214;2023-04-24T07:32:08;11.97;;;8.67;;
23266;SDS011;11802;53.160;8.214;2023-04-24T07:34:34;13.23;;;9.23;;
23266;SDS011;11802;53.160;8.214;2023-04-24T07:37:00;13.80;;;9.03;;
23266;SDS011;11802;53.160;8.214;2023-04-24T07:39:25;12.30;;;9.60;;
23266;SDS011;11802;53.160;8.214;2023-04-24T07:41:51;13.90;;;9.43;;
23266;SDS011;11802;53.160;8.214;2023-04-24T07:44:17;14.63;;;9.57;;
23266;SDS011;11802;53.160;8.214;2023-04-24T07:46:42;12.57;;;9.70;;
23266;SDS011;11802;53.160;8.214;2023-04-24T07:49:08;12.50;;;9.13;;
23266;SDS011;11802;53.160;8.214;2023-04-24T07:51:34;12.77;;;9.13;;
23266;SDS011;11802;53.160;8.214;2023-04-24T07:54:03;12.40;;;8.60;;
23266;SDS011;11802;53.160;8.214;2023-04-24T07:56:30;13.00;;;9.43;;
23266;SDS011;11802;53.160;8.214;2023-04-24T07:58:56;11.30;;;8.37;;
23266;SDS011;11802;53.160;8.214;2023-04-24T08:01:22;13.33;;;9.20;;
23266;SDS011;11802;53.160;8.214;2023-04-24T08:03:47;11.77;;;8.77;;
23266;SDS011;11802;53.160;8.214;2023-04-24T08:06:13;11.63;;;8.97;;
23266;SDS011;11802;53.160;8.214;2023-04-24T08:08:39;12.27;;;7.13;;
23266;SDS011;11802;53.160;8.214;2023-04-24T08:11:04;10.57;;;7.97;;
23266;SDS011;11802;53.160;8.214;2023-04-24T08:13:30;10.83;;;7.80;;
23266;SDS011;11802;53.160;8.214;2023-04-24T08:15:56;10.60;;;7.23;;
23266;SDS011;11802;53.160;8.214;2023-04-24T08:18:22;9.17;;;6.87;;
23266;SDS011;11802;53.160;8.214;2023-04-24T08:20:47;10.13;;;6.77;;
23266;SDS011;11802;53.160;8.214;2023-04-24T08:23:13;10.50;;;7.43;;
23266;SDS011;11802;53.160;8.214;2023-04-24T08:25:39;11.80;;;7.63;;
23266;SDS011;11802;53.160;8.214;2023-04-24T08:28:05;10.07;;;6.67;;
23266;SDS011;11802;53.160;8.214;2023-04-24T08:30:31;10.07;;;7.50;;
23266;SDS011;11802;53.160;8.214;2023-04-24T08:32:57;8.73;;;6.47;;
23266;SDS011;11802;53.160;8.214;2023-04-24T08:35:23;9.00;;;7.37;;
23266;SDS011;11802;53.160;8.214;2023-04-24T08:37:48;11.83;;;6.97;;
23266;SDS011;11802;53.160;8.214;2023-04-24T08:40:15;8.90;;;6.03;;
23266;SDS011;11802;53.160;8.214;2023-04-24T08:42:44;9.93;;;6.60;;
23266;SDS011;11802;53.160;8.214;2023-04-24T08:45:11;10.50;;;6.27;;
23266;SDS011;11802;53.160;8.214;2023-04-24T08:47:38;8.63;;;6.37;;
23266;SDS011;11802;53.160;8.214;2023-04-24T08:50:04;6.47;;;5.03;;
23266;SDS011;11802;53.160;8.214;2023-04-24T08:52:32;8.23;;;4.93;;
23266;SDS011;11802;53.160;8.214;2023-04-24T08:54:58;7.37;;;5.30;;
23266;SDS011;11802;53.160;8.214;2023-04-24T08:57:26;8.73;;;5.47;;
23266;SDS011;11802;53.160;8.214;2023-04-24T08:59:52;7.40;;;5.13;;
23266;SDS011;11802;53.160;8.214;2023-04-24T09:02:19;7.37;;;5.30;;
23266;SDS011;11802;53.160;8.214;2023-04-24T09:04:46;8.70;;;6.10;;
23266;SDS011;11802;53.160;8.214;2023-04-24T09:07:12;8.97;;;6.20;;
23266;SDS011;11802;53.160;8.214;2023-04-24T09:09:41;8.20;;;5.97;;
23266;SDS011;11802;53.160;8.214;2023-04-24T09:12:07;8.43;;;5.60;;
23266;SDS011;11802;53.160;8.214;2023-04-24T09:14:34;7.63;;;5.53;;
23266;SDS011;11802;53.160;8.214;2023-04-24T09:17:04;12.50;;;6.57;;
23266;SDS011;11802;53.160;8.214;2023-04-24T09:19:31;8.10;;;5.93;;
23266;SDS011;11802;53.160;8.214;2023-04-24T09:21:57;7.97;;;5.63;;
23266;SDS011;11802;53.160;8.214;2023-04-24T09:24:22;8.30;;;5.90;;
23266;SDS011;11802;53.160;8.214;2023-04-24T09:26:48;12.00;;;6.80;;
23266;SDS011;11802;53.160;8.214;2023-04-24T09:29:22;10.07;;;7.07;;
23266;SDS011;11802;53.160;8.214;2023-04-24T09:31:47;9.10;;;6.20;;
23266;SDS011;11802;53.160;8.214;2023-04-24T09:34:13;12.87;;;7.77;;
23266;SDS011;11802;53.160;8.214;2023-04-24T09:36:42;9.93;;;7.33;;
23266;SDS011;11802;53.160;8.214;2023-04-24T09:39:09;11.13;;;7.90;;
23266;SDS011;11802;53.160;8.214;2023-04-24T09:44:20;8.50;;;6.27;;
23266;SDS011;11802;53.160;8.214;2023-04-24T09:46:53;10.57;;;6.83;;
23266;SDS011;11802;53.160;8.214;2023-04-24T09:49:23;8.47;;;6.03;;
23266;SDS011;11802;53.160;8.214;2023-04-24T09:52:02;10.20;;;7.57;;
23266;SDS011;11802;53.160;8.214;2023-04-24T09:54:32;9.23;;;6.07;;
23266;SDS011;11802;53.160;8.214;2023-04-24T09:56:58;8.97;;;6.10;;
23266;SDS011;11802;53.160;8.214;2023-04-24T09:59:25;9.63;;;6.80;;
23266;SDS011;11802;53.160;8.214;2023-04-24T10:01:51;9.90;;;7.20;;
23266;SDS011;11802;53.160;8.214;2023-04-24T10:04:24;8.67;;;7.23;;
23266;SDS011;11802;53.160;8.214;2023-04-24T10:06:52;11.07;;;6.83;;
23266;SDS011;11802;53.160;8.214;2023-04-24T10:09:19;8.50;;;6.60;;
23266;SDS011;11802;53.160;8.214;2023-04-24T10:11:47;9.83;;;6.53;;
23266;SDS011;11802;53.160;8.214;2023-04-24T10:14:15;8.73;;;5.60;;
23266;SDS011;11802;53.160;8.214;2023-04-24T10:16:43;7.83;;;4.80;;
23266;SDS011;11802;53.160;8.214;2023-04-24T10:19:12;6.47;;;4.30;;
23266;SDS011;11802;53.160;8.214;2023-04-24T10:21:40;6.70;;;4.53;;
23266;SDS011;11802;53.160;8.214;2023-04-24T10:24:12;7.27;;;4.60;;
23266;SDS011;11802;53.160;8.214;2023-04-24T10:26:38;6.23;;;3.90;;
23266;SDS011;11802;53.160;8.214;2023-04-24T10:29:05;4.77;;;3.20;;
23266;SDS011;11802;53.160;8.214;2023-04-24T10:31:35;5.07;;;3.77;;
23266;SDS011;11802;53.160;8.214;2023-04-24T10:34:02;4.97;;;3.80;;
23266;SDS011;11802;53.160;8.214;2023-04-24T10:36:34;6.83;;;3.80;;
23266;SDS011;11802;53.160;8.214;2023-04-24T10:39:07;4.77;;;3.33;;
23266;SDS011;11802;53.160;8.214;2023-04-24T10:41:39;4.23;;;3.10;;
23266;SDS011;11802;53.160;8.214;2023-04-24T10:44:05;4.03;;;2.80;;
23266;SDS011;11802;53.160;8.214;2023-04-24T10:46:32;3.50;;;2.70;;
23266;SDS011;11802;53.160;8.214;2023-04-24T10:48:58;3.50;;;2.60;;
23266;SDS011;11802;53.160;8.214;2023-04-24T10:51:24;4.53;;;2.93;;
23266;SDS011;11802;53.160;8.214;2023-04-24T10:54:22;5.27;;;2.77;;
23266;SDS011;11802;53.160;8.214;2023-04-24T10:56:52;8.47;;;3.17;;
23266;SDS011;11802;53.160;8.214;2023-04-24T10:59:25;3.90;;;2.53;;
23266;SDS011;11802;53.160;8.214;2023-04-24T11:02:00;4.33;;;2.50;;
23266;SDS011;11802;53.160;8.214;2023-04-24T11:04:29;5.00;;;3.03;;
23266;SDS011;11802;53.160;8.214;2023-04-24T11:06:56;2.97;;;2.50;;
23266;SDS011;11802;53.160;8.214;2023-04-24T11:09:22;5.23;;;3.50;;
23266;SDS011;11802;53.160;8.214;2023-04-24T11:11:52;4.53;;;3.00;;
23266;SDS011;11802;53.160;8.214;2023-04-24T11:17:36;8.50;;;3.83;;
23266;SDS011;11802;53.160;8.214;2023-04-24T11:20:07;4.87;;;3.57;;
23266;SDS011;11802;53.160;8.214;2023-04-24T11:22:35;5.23;;;3.90;;
23266;SDS011;11802;53.160;8.214;2023-04-24T11:25:07;8.40;;;5.83;;
23266;SDS011;11802;53.160;8.214;2023-04-24T11:27:38;5.77;;;3.40;;
23266;SDS011;11802;53.160;8.214;2023-04-24T11:30:06;5.27;;;3.53;;
23266;SDS011;11802;53.160;8.214;2023-04-24T11:37:44;7.87;;;2.97;;
23266;SDS011;11802;53.160;8.214;2023-04-24T11:40:12;4.50;;;3.10;;
23266;SDS011;11802;53.160;8.214;2023-04-24T11:42:42;5.30;;;3.53;;
23266;SDS011;11802;53.160;8.214;2023-04-24T11:45:15;4.70;;;2.40;;
23266;SDS011;11802;53.160;8.214;2023-04-24T11:47:46;2.70;;;2.00;;
23266;SDS011;11802;53.160;8.214;2023-04-24T11:50:13;3.77;;;2.30;;
23266;SDS011;11802;53.160;8.214;2023-04-24T11:52:40;6.63;;;2.07;;
23266;SDS011;11802;53.160;8.214;2023-04-24T11:55:28;3.83;;;2.20;;
23266;SDS011;11802;53.160;8.214;2023-04-24T11:57:57;2.93;;;2.03;;
23266;SDS011;11802;53.160;8.214;2023-04-24T12:00:25;5.03;;;2.77;;
23266;SDS011;11802;53.160;8.214;2023-04-24T12:03:05;9.43;;;4.40;;
23266;SDS011;11802;53.160;8.214;2023-04-24T12:05:32;6.90;;;4.40;;
23266;SDS011;11802;53.160;8.214;2023-04-24T12:07:59;8.10;;;5.17;;
23266;SDS011;11802;53.160;8.214;2023-04-24T12:10:26;7.90;;;5.40;;
23266;SDS011;11802;53.160;8.214;2023-04-24T12:12:52;9.50;;;6.00;;
23266;SDS011;11802;53.160;8.214;2023-04-24T12:15:20;7.90;;;5.87;;
23266;SDS011;11802;53.160;8.214;2023-04-24T12:17:46;13.20;;;8.33;;
23266;SDS011;11802;53.160;8.214;2023-04-24T12:20:13;12.73;;;8.90;;
23266;SDS011;11802;53.160;8.214;2023-04-24T12:22:45;14.03;;;8.97;;
23266;SDS011;11802;53.160;8.214;2023-04-24T12:25:12;15.93;;;9.93;;
23266;SDS011;11802;53.160;8.214;2023-04-24T12:27:42;12.30;;;9.40;;
23266;SDS011;11802;53.160;8.214;2023-04-24T12:30:12;11.33;;;8.00;;
23266;SDS011;11802;53.160;8.214;2023-04-24T12:32:41;12.73;;;8.30;;
23266;SDS011;11802;53.160;8.214;2023-04-24T12:35:07;10.87;;;7.07;;
23266;SDS011;11802;53.160;8.214;2023-04-24T12:37:33;11.00;;;7.17;;
23266;SDS011;11802;53.160;8.214;2023-04-24T12:40:02;12.90;;;7.73;;
23266;SDS011;11802;53.160;8.214;2023-04-24T12:42:32;15.40;;;8.87;;
23266;SDS011;11802;53.160;8.214;2023-04-24T12:45:00;15.93;;;8.87;;
23266;SDS011;11802;53.160;8.214;2023-04-24T12:47:29;14.63;;;7.37;;
23266;SDS011;11802;53.160;8.214;2023-04-24T12:49:55;11.40;;;6.50;;
23266;SDS011;11802;53.160;8.214;2023-04-24T12:52:21;8.93;;;6.07;;
23266;SDS011;11802;53.160;8.214;2023-04-24T12:54:48;11.00;;;6.27;;
23266;SDS011;11802;53.160;8.214;2023-04-24T12:57:15;10.67;;;6.30;;
23266;SDS011;11802;53.160;8.214;2023-04-24T12:59:41;12.57;;;6.50;;
23266;SDS011;11802;53.160;8.214;2023-04-24T13:02:07;13.37;;;6.60;;
23266;SDS011;11802;53.160;8.214;2023-04-24T13:04:34;10.30;;;6.33;;
23266;SDS011;11802;53.160;8.214;2023-04-24T13:07:04;12.23;;;6.67;;
23266;SDS011;11802;53.160;8.214;2023-04-24T13:09:30;13.43;;;7.00;;
23266;SDS011;11802;53.160;8.214;2023-04-24T13:11:56;12.07;;;6.30;;
23266;SDS011;11802;53.160;8.214;2023-04-24T13:14:22;13.23;;;7.60;;
23266;SDS011;11802;53.160;8.214;2023-04-24T13:16:48;9.33;;;6.30;;
23266;SDS011;11802;53.160;8.214;2023-04-24T13:19:14;10.27;;;5.30;;
23266;SDS011;11802;53.160;8.214;2023-04-24T13:21:40;10.37;;;5.10;;
23266;SDS011;11802;53.160;8.214;2023-04-24T13:24:05;10.57;;;4.90;;
23266;SDS011;11802;53.160;8.214;2023-04-24T13:26:32;14.80;;;5.23;;
23266;SDS011;11802;53.160;8.214;2023-04-24T13:28:58;7.87;;;4.80;;
23266;SDS011;11802;53.160;8.214;2023-04-24T13:31:23;7.83;;;4.70;;
23266;SDS011;11802;53.160;8.214;2023-04-24T13:33:49;13.07;;;4.27;;
23266;SDS011;11802;53.160;8.214;2023-04-24T13:36:15;10.27;;;4.27;;
23266;SDS011;11802;53.160;8.214;2023-04-24T13:38:42;14.07;;;4.40;;
23266;SDS011;11802;53.160;8.214;2023-04-24T13:41:09;8.53;;;3.80;;
23266;SDS011;11802;53.160;8.214;2023-04-24T13:43:34;10.27;;;3.90;;
23266;SDS011;11802;53.160;8.214;2023-04-24T13:46:00;10.03;;;4.43;;
23266;SDS011;11802;53.160;8.214;2023-04-24T13:48:27;10.70;;;4.20;;
23266;SDS011;11802;53.160;8.214;2023-04-24T13:50:56;11.30;;;4.13;;
23266;SDS011;11802;53.160;8.214;2023-04-24T13:53:22;8.83;;;3.80;;
23266;SDS011;11802;53.160;8.214;2023-04-24T13:55:47;9.77;;;4.00;;
23266;SDS011;11802;53.160;8.214;2023-04-24T13:58:13;12.13;;;4.50;;
23266;SDS011;11802;53.160;8.214;2023-04-24T14:00:39;8.67;;;4.30;;
23266;SDS011;11802;53.160;8.214;2023-04-24T14:03:05;9.67;;;4.67;;
23266;SDS011;11802;53.160;8.214;2023-04-24T14:05:31;8.47;;;4.40;;
23266;SDS011;11802;53.160;8.214;2023-04-24T14:07:56;10.67;;;4.90;;
23266;SDS011;11802;53.160;8.214;2023-04-24T14:10:22;12.83;;;4.93;;
23266;SDS011;11802;53.160;8.214;2023-04-24T14:12:47;12.80;;;5.20;;
23266;SDS011;11802;53.160;8.214;2023-04-24T14:15:14;12.80;;;4.70;;
23266;SDS011;11802;53.160;8.214;2023-04-24T14:17:40;9.93;;;4.30;;
23266;SDS011;11802;53.160;8.214;2023-04-24T14:20:06;10.13;;;4.50;;
23266;SDS011;11802;53.160;8.214;2023-04-24T14:22:32;12.60;;;5.20;;
23266;SDS011;11802;53.160;8.214;2023-04-24T14:24:57;11.60;;;4.70;;
23266;SDS011;11802;53.160;8.214;2023-04-24T14:27:24;10.80;;;4.20;;
23266;SDS011;11802;53.160;8.214;2023-04-24T14:29:50;12.13;;;5.80;;
23266;SDS011;11802;53.160;8.214;2023-04-24T14:32:15;10.50;;;4.97;;
23266;SDS011;11802;53.160;8.214;2023-04-24T14:34:41;10.73;;;4.40;;
23266;SDS011;11802;53.160;8.214;2023-04-24T14:37:07;8.73;;;3.50;;
23266;SDS011;11802;53.160;8.214;2023-04-24T14:39:32;9.77;;;4.10;;
23266;SDS011;11802;53.160;8.214;2023-04-24T14:41:58;11.57;;;4.57;;
23266;SDS011;11802;53.160;8.214;2023-04-24T14:44:25;17.47;;;5.57;;
23266;SDS011;11802;53.160;8.214;2023-04-24T14:46:51;9.47;;;3.47;;
23266;SDS011;11802;53.160;8.214;2023-04-24T14:49:17;11.30;;;3.40;;
23266;SDS011;11802;53.160;8.214;2023-04-24T14:51:42;14.47;;;5.43;;